This is the latest recevied weather packets stored in our database for station/object WE8L. If no packets are shown the sender has not sent any weather packets the latest 1 day(s).
| Time | Temp. | Humidity | Pressure | Rain* | Wind** | Luminosity | Snow |
|---|---|---|---|---|---|---|---|
| 1777994510 | 18.89° C | 73% | 1011.1 hPa | 0 mm | 0 m/s | 108 W/m² | - |
| 1777994206 | 19.44° C | 72% | 1011.4 hPa | 0 mm | 0.45 m/s, 320° | 129 W/m² | - |
| 1777993903 | 18.89° C | 73% | 1011.4 hPa | 0 mm | 1.34 m/s, 182° | 130 W/m² | - |
| 1777993599 | 18.89° C | 74% | 1011.3 hPa | 0 mm | 1.34 m/s, 132° | 134 W/m² | - |
| 1777993296 | 18.89° C | 76% | 1011.4 hPa | 0 mm | 1.79 m/s, 245° | 153 W/m² | - |
| 1777992992 | 18.33° C | 79% | 1011.4 hPa | 0 mm | 0.89 m/s, 257° | 205 W/m² | - |
| 1777992691 | 18.33° C | 80% | 1011.3 hPa | 0 mm | 1.34 m/s, 263° | 230 W/m² | - |
| 1777992388 | 17.78° C | 83% | 1011.4 hPa | 0 mm | 0 m/s | 238 W/m² | - |
| 1777992085 | 17.78° C | 84% | 1011.3 hPa | 0 mm | 0.45 m/s, 200° | 187 W/m² | - |
| 1777991783 | 17.22° C | 84% | 1011.3 hPa | 0 mm | 0.45 m/s, 223° | 192 W/m² | - |
| 1777991480 | 17.22° C | 87% | 1011.3 hPa | 0 mm | 0.45 m/s, 181° | 239 W/m² | - |
| 1777991177 | 16.67° C | 88% | 1011.2 hPa | 0 mm | 0.45 m/s, 290° | 152 W/m² | - |
| 1777990874 | 16.67° C | 89% | 1011.2 hPa | 0 mm | 0 m/s | 100 W/m² | - |
| 1777990572 | 16.11° C | 88% | 1011 hPa | 0 mm | 0 m/s | 102 W/m² | - |
| 1777990268 | 16.11° C | 88% | 1011.3 hPa | 0 mm | 0.45 m/s, 306° | 147 W/m² | - |
| 1777989965 | 16.11° C | 90% | 1011 hPa | 0 mm | 0.45 m/s, 220° | 100 W/m² | - |
| 1777989662 | 16.11° C | 91% | 1011 hPa | 0 mm | 0.89 m/s, 260° | 142 W/m² | - |
| 1777989358 | 15.56° C | 92% | 1011 hPa | 0 mm | 0.45 m/s, 258° | 168 W/m² | - |
| 1777989055 | 15.56° C | 93% | 1010.7 hPa | 0 mm | 0 m/s | 85 W/m² | - |
| 1777988750 | 15.56° C | 94% | 1010.8 hPa | 0 mm | 0 m/s | 98 W/m² | - |
| 1777988448 | 15.56° C | 94% | 1010.6 hPa | 0 mm | 0.89 m/s, 23° | 81 W/m² | - |
| 1777988144 | 15° C | 94% | 1010.8 hPa | 0 mm | 0.45 m/s, 252° | 74 W/m² | - |
| 1777987840 | 15° C | 93% | 1010.6 hPa | 0 mm | 0.89 m/s, 201° | 79 W/m² | - |
| 1777987537 | 14.44° C | 93% | 1010.3 hPa | 0 mm | 0.89 m/s, 176° | 59 W/m² | - |
| 1777987235 | 14.44° C | 94% | 1010.2 hPa | 0 mm | 1.34 m/s, 156° | 46 W/m² | - |
* Rain latest hour (hover to see other rain measurements)
** Current wind speed in m/s (hover to see current wind gust speed)